Time;durP1;ratioP1;P1;durP2;ratioP2;P2;SDS_P1;SDS_P2;PMS_P1;PMS_P2;Temp;Humidity;BMP_temperature;BMP_pressure;BME280_temperature;BME280_humidity;BME280_pressure;Samples;Min_cycle;Max_cycle;Signal;HPM_P1;HPM_P2
2021/01/02 00:02:40;;;;;;;34.70;21.40;;;;;;;3.51;77.88;100051.06;5067095;28;20236;-81
2021/01/02 00:05:07;;;;;;;32.03;20.40;;;;;;;3.36;78.32;100050.13;5067530;28;20262;-82
2021/01/02 00:08:02;;;;;;;34.00;20.27;;;;;;;3.40;78.37;100058.75;5065626;28;20223;-82
2021/01/02 00:10:33;;;;;;;30.97;20.37;;;;;;;3.21;78.56;100055.22;5071972;28;20205;-83
2021/01/02 00:13:10;;;;;;;32.57;20.33;;;;;;;3.20;79.30;100056.06;5070537;28;20201;-82
2021/01/02 00:15:47;;;;;;;30.17;21.03;;;;;;;3.10;79.01;100051.72;5080690;28;20204;-82
2021/01/02 00:18:30;;;;;;;32.53;20.20;;;;;;;3.09;79.47;100053.47;5061297;28;20233;-82
2021/01/02 00:21:16;;;;;;;29.70;19.73;;;;;;;3.16;79.03;100051.75;5071205;28;20674;-83
2021/01/02 00:24:08;;;;;;;29.83;20.20;;;;;;;3.05;79.27;100056.84;5069838;28;20205;-83
2021/01/02 00:26:43;;;;;;;33.77;20.23;;;;;;;3.02;79.65;100059.44;5075208;28;20749;-84
2021/01/02 00:29:17;;;;;;;29.97;19.47;;;;;;;3.09;78.84;100058.63;5066706;28;20247;-82
2021/01/02 00:32:06;;;;;;;32.47;20.30;;;;;;;3.14;79.10;100056.06;5072925;28;20220;-84
2021/01/02 00:35:06;;;;;;;28.77;19.87;;;;;;;3.24;79.06;100062.13;5067994;28;20197;-83
2021/01/02 00:37:36;;;;;;;28.67;20.03;;;;;;;3.13;78.97;100059.47;5070172;28;20224;-82
2021/01/02 00:40:10;;;;;;;25.10;18.97;;;;;;;3.16;79.04;100062.94;5063796;28;20224;-83
2021/01/02 00:42:39;;;;;;;26.37;19.07;;;;;;;2.97;78.93;100061.09;5062030;28;20229;-84
2021/01/02 00:45:07;;;;;;;24.87;19.07;;;;;;;2.94;79.72;100063.69;5063376;28;20197;-83
2021/01/02 00:47:35;;;;;;;34.57;20.20;;;;;;;3.00;79.71;100066.28;5067148;28;20228;-85
2021/01/02 00:50:01;;;;;;;32.70;20.13;;;;;;;2.99;79.87;100069.69;5064288;28;20202;-82
2021/01/02 00:52:43;;;;;;;29.00;19.52;;;;;;;3.07;79.59;100073.22;4724645;28;10000482;-83
2021/01/02 00:55:24;;;;;;;27.33;20.27;;;;;;;3.06;79.15;100068.03;5059660;28;20197;-84
2021/01/02 00:58:03;;;;;;;30.50;18.67;;;;;;;3.10;79.28;100073.22;5057564;28;20217;-86
2021/01/02 01:00:33;;;;;;;30.43;19.73;;;;;;;3.05;78.95;100074.03;5055302;28;20327;-84
2021/01/02 01:03:06;;;;;;;31.67;19.67;;;;;;;3.05;79.93;100071.47;5071543;28;20198;-86
2021/01/02 01:05:34;;;;;;;25.63;19.13;;;;;;;3.05;80.06;100071.47;5062934;28;20204;-85
2021/01/02 01:08:01;;;;;;;26.47;19.57;;;;;;;3.10;79.82;100075.78;5061843;28;20750;-82
2021/01/02 01:10:28;;;;;;;29.07;19.90;;;;;;;3.05;79.71;100074.91;5061965;28;20198;-83
2021/01/02 01:12:58;;;;;;;31.03;21.00;;;;;;;3.09;79.55;100079.25;5061470;28;20277;-83
2021/01/02 01:15:25;;;;;;;31.90;19.37;;;;;;;3.14;79.95;100079.25;5061713;28;20194;-85
2021/01/02 01:18:01;;;;;;;25.73;19.00;;;;;;;3.14;79.64;100081.84;5061864;28;20275;-83
2021/01/02 01:20:29;;;;;;;27.87;20.67;;;;;;;2.93;80.03;100086.03;5055026;28;20196;-80
2021/01/02 01:23:06;;;;;;;28.50;20.77;;;;;;;3.01;80.06;100085.19;5063447;28;20229;-84
2021/01/02 01:25:51;;;;;;;26.03;19.60;;;;;;;3.07;79.95;100092.97;5064530;28;20212;-82
2021/01/02 01:28:19;;;;;;;26.03;19.40;;;;;;;3.08;79.97;100089.53;5057449;28;20714;-84
2021/01/02 01:30:51;;;;;;;26.07;20.13;;;;;;;3.04;79.96;100087.81;5055175;28;20300;-84
2021/01/02 01:33:25;;;;;;;32.47;20.10;;;;;;;3.08;80.18;100086.97;5050159;28;20223;-84
2021/01/02 01:35:51;;;;;;;27.13;19.50;;;;;;;3.13;79.57;100086.13;5055572;28;20202;-84
2021/01/02 01:38:21;;;;;;;26.83;19.37;;;;;;;3.16;79.78;100093.88;5056330;28;20759;-83
2021/01/02 01:40:57;;;;;;;31.63;20.80;;;;;;;3.19;79.78;100098.19;5056511;28;20221;-82
2021/01/02 01:43:36;;;;;;;35.80;19.73;;;;;;;3.21;79.57;100095.63;5061618;28;20236;-83
2021/01/02 01:46:14;;;;;;;25.60;20.77;;;;;;;3.20;79.29;100096.50;5057174;28;20615;-82
2021/01/02 01:49:05;;;;;;;24.57;18.10;;;;;;;3.08;79.89;100092.97;5058425;28;20213;-82
2021/01/02 01:51:49;;;;;;;23.77;18.23;;;;;;;3.00;80.26;100097.22;5053610;28;20276;-82
2021/01/02 01:54:48;;;;;;;26.87;19.30;;;;;;;3.03;80.16;100092.06;5064764;28;20206;-82
2021/01/02 01:57:22;;;;;;;30.00;19.70;;;;;;;3.03;80.05;100091.22;5060541;28;20708;-84
2021/01/02 02:00:08;;;;;;;26.73;19.60;;;;;;;2.93;80.21;100090.28;5058035;28;20205;-84
2021/01/02 02:03:02;;;;;;;30.27;20.20;;;;;;;2.95;79.57;100092.06;5068641;28;20228;-82
2021/01/02 02:05:33;;;;;;;29.07;18.57;;;;;;;2.87;79.87;100088.53;5060710;28;20190;-83
2021/01/02 02:08:01;;;;;;;22.60;17.43;;;;;;;2.82;79.90;100095.38;5059569;28;20272;-83
2021/01/02 02:10:29;;;;;;;23.47;17.53;;;;;;;2.75;79.48;100099.63;5060786;28;20201;-82
2021/01/02 02:12:56;;;;;;;27.03;18.07;;;;;;;2.69;79.51;100097.00;5061955;28;20208;-81
2021/01/02 02:15:24;;;;;;;24.77;17.90;;;;;;;2.71;79.69;100107.31;5060678;28;20205;-83
2021/01/02 02:17:53;;;;;;;27.23;19.23;;;;;;;2.48;80.05;100110.59;5061279;28;20232;-82
2021/01/02 02:20:22;;;;;;;23.33;17.63;;;;;;;2.32;79.91;100098.41;5053488;28;20205;-82
2021/01/02 02:23:00;;;;;;;29.83;18.57;;;;;;;2.29;80.58;100106.97;5061209;28;20194;-83
2021/01/02 02:25:40;;;;;;;30.40;18.60;;;;;;;2.28;80.13;100106.94;5046207;28;20201;-82
2021/01/02 02:28:09;;;;;;;27.40;18.03;;;;;;;2.26;80.44;100106.06;5060769;28;20217;-84
2021/01/02 02:30:43;;;;;;;22.77;17.60;;;;;;;2.23;80.10;100106.91;5060208;28;20671;-83
2021/01/02 02:33:17;;;;;;;36.37;21.40;;;;;;;2.06;80.39;100109.34;5068615;28;20201;-83
2021/01/02 02:35:43;;;;;;;25.60;18.23;;;;;;;2.04;80.61;100116.16;5060160;28;20190;-83
2021/01/02 02:38:12;;;;;;;23.93;17.03;;;;;;;2.08;80.09;100110.22;5060779;28;20706;-84
2021/01/02 02:40:38;;;;;;;24.33;18.80;;;;;;;2.07;80.01;100116.19;5059296;28;20206;-83
2021/01/02 02:43:05;;;;;;;31.00;19.60;;;;;;;2.03;81.36;100122.16;5060927;28;20219;-82
2021/01/02 02:45:32;;;;;;;32.57;19.40;;;;;;;1.97;80.95;100120.38;5059931;28;20255;-84
2021/01/02 02:48:03;;;;;;;25.37;18.93;;;;;;;2.08;81.83;100123.09;5060477;28;20221;-84
2021/01/02 02:50:29;;;;;;;28.67;19.10;;;;;;;2.11;81.89;100122.25;5060545;28;20202;-83
2021/01/02 02:53:04;;;;;;;28.23;19.03;;;;;;;2.17;81.03;100124.88;5065253;28;20209;-84
2021/01/02 02:55:30;;;;;;;25.40;19.17;;;;;;;2.21;81.14;100124.06;5059745;28;20189;-83
2021/01/02 02:57:57;;;;;;;27.67;18.07;;;;;;;2.24;81.77;100123.22;5061143;28;20221;-84
2021/01/02 03:00:23;;;;;;;22.57;16.87;;;;;;;2.22;81.38;100120.66;5060630;28;20643;-83
2021/01/02 03:02:49;;;;;;;24.83;18.03;;;;;;;2.26;81.19;100125.00;5068379;28;20223;-82
2021/01/02 03:05:18;;;;;;;29.47;19.50;;;;;;;2.25;81.54;100122.41;5060359;28;20680;-83
2021/01/02 03:07:45;;;;;;;29.47;19.30;;;;;;;2.32;81.84;100125.03;5064993;28;20565;-83
2021/01/02 03:10:13;;;;;;;28.83;20.90;;;;;;;2.25;81.59;100127.53;5063046;28;20204;-82
2021/01/02 03:12:43;;;;;;;28.40;19.40;;;;;;;2.33;81.86;100119.03;5061687;28;20209;-83
2021/01/02 03:15:11;;;;;;;25.57;18.23;;;;;;;2.36;81.41;100128.53;5060212;28;20229;-84
2021/01/02 03:17:37;;;;;;;26.83;18.80;;;;;;;2.38;81.07;100126.81;5061206;28;20255;-83
2021/01/02 03:20:04;;;;;;;27.27;18.33;;;;;;;2.43;81.73;100127.72;5061283;28;20198;-82
2021/01/02 03:22:30;;;;;;;28.70;20.07;;;;;;;2.33;82.35;100125.91;5061805;28;20639;-82
2021/01/02 03:24:56;;;;;;;25.87;18.30;;;;;;;2.31;81.53;100133.59;5061293;28;20209;-82
2021/01/02 03:27:22;;;;;;;24.13;19.83;;;;;;;2.35;82.24;100129.34;5061164;28;20561;-81
2021/01/02 03:29:48;;;;;;;26.60;18.73;;;;;;;2.28;81.81;100128.44;5057160;28;20693;-81
2021/01/02 03:32:14;;;;;;;27.00;19.40;;;;;;;2.26;82.45;100134.41;5069474;28;20579;-84
2021/01/02 03:34:40;;;;;;;31.67;18.87;;;;;;;2.30;82.01;100142.19;5060323;28;20558;-84
2021/01/02 03:37:06;;;;;;;24.77;18.03;;;;;;;2.26;82.33;100135.28;5061083;28;20205;-84
2021/01/02 03:39:33;;;;;;;22.33;18.23;;;;;;;2.30;81.68;100138.72;5061255;28;20686;-82
2021/01/02 03:41:59;;;;;;;23.27;18.23;;;;;;;2.26;81.24;100131.81;5061288;28;20222;-82
2021/01/02 03:44:25;;;;;;;28.00;19.83;;;;;;;2.27;81.32;100134.44;5060929;28;20261;-84
2021/01/02 03:46:51;;;;;;;24.00;18.63;;;;;;;2.25;81.49;100130.97;5060922;28;20206;-82
2021/01/02 03:49:16;;;;;;;27.33;20.10;;;;;;;2.19;81.25;100136.06;5061420;28;20290;-82
2021/01/02 03:51:42;;;;;;;30.17;21.23;;;;;;;2.11;82.40;100135.13;5061409;28;20736;-83
2021/01/02 03:54:08;;;;;;;26.40;19.50;;;;;;;2.07;81.38;100144.53;5060256;28;20209;-84
2021/01/02 03:56:35;;;;;;;35.57;22.87;;;;;;;2.09;82.54;100136.81;5060931;28;20212;-83
2021/01/02 03:59:01;;;;;;;32.97;20.60;;;;;;;2.04;81.40;100144.47;5060877;28;20237;-82
2021/01/02 04:01:27;;;;;;;30.63;20.07;;;;;;;2.00;81.71;100132.41;5065617;28;20224;-82
2021/01/02 04:03:53;;;;;;;34.43;22.23;;;;;;;1.99;80.94;100143.56;5063992;28;20205;-84
2021/01/02 04:06:24;;;;;;;28.97;19.47;;;;;;;1.87;81.51;100135.72;5061635;28;20233;-82
2021/01/02 04:08:50;;;;;;;26.87;20.97;;;;;;;1.74;81.72;100134.69;5061243;28;20230;-84
2021/01/02 04:11:16;;;;;;;28.10;19.93;;;;;;;1.72;81.86;100142.41;5062730;28;20197;-84
2021/01/02 04:13:43;;;;;;;26.10;20.73;;;;;;;1.69;81.17;100137.22;5062321;28;20213;-83
2021/01/02 04:16:08;;;;;;;27.30;20.10;;;;;;;1.61;81.85;100135.41;5061061;28;20259;-85
2021/01/02 04:18:34;;;;;;;30.43;20.73;;;;;;;1.62;82.17;100134.56;5060835;28;20225;-82
2021/01/02 04:21:00;;;;;;;24.50;18.90;;;;;;;1.62;82.52;100142.28;5060378;28;20264;-84
2021/01/02 04:23:26;;;;;;;26.87;20.07;;;;;;;1.66;81.36;100138.91;5061282;28;20212;-82
2021/01/02 04:25:52;;;;;;;29.60;21.03;;;;;;;1.53;82.01;100143.91;5062308;28;20208;-82
2021/01/02 04:28:18;;;;;;;27.93;20.63;;;;;;;1.53;82.07;100131.03;5065895;28;20217;-84
2021/01/02 04:30:45;;;;;;;28.40;20.07;;;;;;;1.55;81.66;100138.78;5059725;28;20259;-84
2021/01/02 04:33:10;;;;;;;25.93;19.13;;;;;;;1.48;82.24;100135.25;5072446;28;20206;-82
2021/01/02 04:35:37;;;;;;;26.07;20.33;;;;;;;1.55;82.00;100141.34;5066957;28;20658;-83
2021/01/02 04:38:03;;;;;;;29.40;19.37;;;;;;;1.57;82.06;100131.94;5061320;28;20629;-84
2021/01/02 04:40:30;;;;;;;27.20;20.73;;;;;;;1.56;82.27;100140.50;5061071;28;20201;-84
2021/01/02 04:42:56;;;;;;;27.43;20.73;;;;;;;1.62;82.79;100135.41;5060656;28;20229;-82
2021/01/02 04:45:24;;;;;;;25.17;20.37;;;;;;;1.68;83.52;100142.34;5060303;28;20557;-84
2021/01/02 04:47:51;;;;;;;31.50;20.93;;;;;;;1.70;83.19;100140.66;5060427;28;20236;-83
2021/01/02 04:50:18;;;;;;;33.47;21.80;;;;;;;1.72;84.18;100142.41;5053295;28;20194;-84
2021/01/02 04:52:46;;;;;;;28.00;19.90;;;;;;;1.85;83.76;100145.16;5060497;28;20233;-83
2021/01/02 04:55:17;;;;;;;27.90;18.87;;;;;;;1.85;83.65;100140.84;5060818;28;20201;-83
2021/01/02 04:57:46;;;;;;;26.43;19.23;;;;;;;1.86;83.33;100146.84;5064582;28;20247;-81
2021/01/02 05:00:15;;;;;;;29.07;20.43;;;;;;;1.94;84.00;100145.22;5061666;28;20229;-82
2021/01/02 05:02:44;;;;;;;25.07;19.17;;;;;;;1.99;83.65;100151.31;5067732;28;20222;-83
2021/01/02 05:05:11;;;;;;;24.20;19.40;;;;;;;2.07;82.84;100153.97;5061185;28;20210;-83
2021/01/02 05:07:37;;;;;;;27.80;20.77;;;;;;;2.04;82.63;100149.63;5053908;28;20316;-83
2021/01/02 05:10:04;;;;;;;22.90;19.13;;;;;;;1.96;82.29;100152.13;5059656;28;20207;-84
2021/01/02 05:12:32;;;;;;;26.57;20.60;;;;;;;1.88;83.18;100142.59;5060728;28;20553;-82
2021/01/02 05:15:04;;;;;;;24.47;18.50;;;;;;;1.90;82.21;100144.34;5061037;28;20671;-84
2021/01/02 05:17:30;;;;;;;25.70;18.97;;;;;;;1.78;82.68;100146.75;5060789;28;20225;-83
2021/01/02 05:20:02;;;;;;;24.50;19.00;;;;;;;1.84;82.79;100144.25;5050692;22;20244;-82
2021/01/02 05:22:29;;;;;;;25.23;17.97;;;;;;;1.84;83.11;100146.81;5042165;28;20333;-82
2021/01/02 05:25:13;;;;;;;25.50;19.10;;;;;;;1.81;82.61;100135.66;5040730;28;20282;-83
2021/01/02 05:27:43;;;;;;;29.03;19.50;;;;;;;1.79;82.28;100140.78;5038087;28;20284;-83
2021/01/02 05:30:17;;;;;;;23.80;19.53;;;;;;;1.80;83.21;100139.91;5034734;28;20226;-83
2021/01/02 05:33:11;;;;;;;25.63;18.23;;;;;;;1.79;82.43;100149.34;5035711;28;20213;-83
2021/01/02 05:35:39;;;;;;;26.43;17.50;;;;;;;1.75;82.27;100139.03;5030055;28;20581;-83
2021/01/02 05:38:12;;;;;;;26.47;18.90;;;;;;;1.75;83.06;100145.03;5035256;28;20202;-83
2021/01/02 05:40:39;;;;;;;25.70;20.67;;;;;;;1.79;83.13;100140.78;5027148;28;20198;-83
2021/01/02 05:43:05;;;;;;;27.50;19.27;;;;;;;1.78;82.46;100136.47;5035561;28;20225;-83
2021/01/02 05:45:31;;;;;;;19.67;16.83;;;;;;;1.70;81.65;100146.66;5034757;28;20248;-83
2021/01/02 05:48:10;;;;;;;22.67;18.47;;;;;;;1.62;82.37;100144.84;5034998;28;20198;-83
2021/01/02 05:50:42;;;;;;;22.67;17.73;;;;;;;1.56;82.58;100141.34;5030316;28;20201;-82
2021/01/02 05:53:24;;;;;;;23.00;19.83;;;;;;;1.53;82.43;100148.19;5034819;28;20206;-82
2021/01/02 05:55:57;;;;;;;23.23;19.57;;;;;;;1.56;82.93;100154.19;5035078;28;20205;-82
2021/01/02 05:58:23;;;;;;;23.90;19.00;;;;;;;1.52;81.98;100155.00;5019535;28;20226;-83
2021/01/02 06:00:49;;;;;;;23.80;18.23;;;;;;;1.54;82.25;100152.47;5034405;28;20632;-83
2021/01/02 06:03:23;;;;;;;22.90;18.03;;;;;;;1.51;81.55;100155.88;5036193;28;20839;-82
2021/01/02 06:05:58;;;;;;;20.93;18.43;;;;;;;1.44;82.10;100169.47;5033627;28;20202;-82
2021/01/02 06:08:35;;;;;;;27.03;20.20;;;;;;;1.39;81.58;100166.84;5022290;28;20222;-82
2021/01/02 06:11:04;;;;;;;28.10;18.53;;;;;;;1.30;82.37;100165.84;5029598;28;20213;-82
2021/01/02 06:13:32;;;;;;;31.13;20.53;;;;;;;1.26;83.89;100171.81;5034679;28;20203;-82
2021/01/02 06:16:00;;;;;;;28.43;20.07;;;;;;;1.26;83.39;100170.09;5037897;28;20202;-82
2021/01/02 06:18:28;;;;;;;33.50;22.50;;;;;;;1.26;82.27;100171.81;5040002;28;20516;-82
2021/01/02 06:20:56;;;;;;;26.20;19.73;;;;;;;1.25;82.40;100181.22;5040324;28;20206;-82
2021/01/02 06:23:23;;;;;;;25.60;18.60;;;;;;;1.23;82.86;100185.50;5039926;28;20206;-81
2021/01/02 06:25:52;;;;;;;27.53;18.50;;;;;;;1.25;82.99;100182.91;5040984;28;20260;-82
2021/01/02 06:28:18;;;;;;;30.73;20.23;;;;;;;1.22;82.98;100180.31;5021893;28;20276;-81
2021/01/02 06:30:44;;;;;;;27.00;18.10;;;;;;;1.18;83.21;100182.81;5035961;28;20206;-82
2021/01/02 06:33:17;;;;;;;86.47;41.30;;;;;;;1.25;83.45;100186.38;5036994;28;20266;-83
2021/01/02 06:35:43;;;;;;;25.87;19.70;;;;;;;1.27;83.84;100181.22;5035915;28;20220;-83
2021/01/02 06:38:12;;;;;;;24.30;19.03;;;;;;;1.37;84.23;100183.97;5036388;28;20284;-83
2021/01/02 06:40:39;;;;;;;27.17;19.23;;;;;;;1.43;84.10;100184.88;5034974;28;20212;-83
2021/01/02 06:43:08;;;;;;;30.43;21.10;;;;;;;1.43;84.28;100187.44;5039212;28;20228;-83
2021/01/02 06:45:48;;;;;;;31.30;20.33;;;;;;;1.49;83.92;100195.28;5039917;28;20275;-83
2021/01/02 06:48:39;;;;;;;31.03;19.97;;;;;;;1.56;84.00;100190.22;5043887;28;20229;-82
2021/01/02 06:51:28;;;;;;;29.60;20.53;;;;;;;1.61;84.89;100200.59;5044612;28;20257;-82
2021/01/02 06:53:54;;;;;;;31.37;20.60;;;;;;;1.69;84.56;100205.84;5040604;28;20210;-82
2021/01/02 06:56:29;;;;;;;29.67;19.47;;;;;;;1.74;84.64;100199.88;5044476;28;20209;-82
2021/01/02 06:58:56;;;;;;;30.73;20.67;;;;;;;1.78;84.69;100209.41;5036076;28;20227;-82
2021/01/02 07:01:42;;;;;;;32.93;21.23;;;;;;;1.85;84.02;100217.19;5035309;28;20628;-82
2021/01/02 07:04:08;;;;;;;25.13;19.30;;;;;;;1.88;84.81;100212.06;5044395;28;20209;-83
2021/01/02 07:06:39;;;;;;;32.80;20.83;;;;;;;1.92;84.26;100214.72;5044324;28;20678;-82
2021/01/02 07:09:19;;;;;;;25.73;19.07;;;;;;;1.99;83.97;100207.94;5044022;28;20222;-82
2021/01/02 07:11:46;;;;;;;39.40;20.93;;;;;;;2.11;84.14;100220.94;5043762;28;20199;-82
2021/01/02 07:14:25;;;;;;;33.20;20.10;;;;;;;2.13;83.43;100215.81;5037651;28;20214;-81
2021/01/02 07:16:53;;;;;;;27.73;18.97;;;;;;;2.19;84.09;100221.03;5048998;28;20201;-82
2021/01/02 07:19:47;;;;;;;26.30;18.67;;;;;;;2.15;83.71;100214.13;5059344;28;20234;-82
2021/01/02 07:22:25;;;;;;;31.63;19.80;;;;;;;2.17;83.34;100222.72;5045196;28;20263;-82
2021/01/02 07:24:53;;;;;;;26.17;20.03;;;;;;;2.21;83.46;100221.91;5044041;28;20212;-81
2021/01/02 07:27:21;;;;;;;27.20;19.27;;;;;;;2.12;83.32;100220.13;5045611;28;20231;-81
2021/01/02 07:29:50;;;;;;;26.70;18.67;;;;;;;2.21;83.69;100221.06;5043113;28;20722;-81
2021/01/02 07:32:20;;;;;;;27.53;19.10;;;;;;;2.18;83.55;100224.44;5047633;28;20202;-81
2021/01/02 07:34:49;;;;;;;29.03;19.83;;;;;;;2.22;83.59;100236.53;5033521;28;20583;-82
2021/01/02 07:37:17;;;;;;;31.50;20.47;;;;;;;2.31;83.47;100234.03;5041723;28;20260;-81
2021/01/02 07:39:53;;;;;;;29.50;20.47;;;;;;;2.24;83.76;100229.69;5040454;28;20288;-84
2021/01/02 07:42:21;;;;;;;27.07;20.17;;;;;;;2.33;83.56;100239.22;5043240;28;20215;-83
2021/01/02 07:44:54;;;;;;;30.33;20.53;;;;;;;2.27;82.99;100234.00;5044762;28;20202;-84
2021/01/02 07:47:20;;;;;;;34.50;20.83;;;;;;;2.27;83.23;100241.72;5040336;28;20203;-84
2021/01/02 07:49:45;;;;;;;29.53;20.73;;;;;;;2.33;83.51;100240.06;5040085;28;20230;-83
2021/01/02 07:52:11;;;;;;;25.83;19.50;;;;;;;2.36;83.53;100237.56;5038851;28;20206;-82
2021/01/02 07:54:38;;;;;;;31.87;20.87;;;;;;;2.44;83.63;100244.47;5036931;28;20244;-82
2021/01/02 07:57:06;;;;;;;35.73;21.20;;;;;;;2.47;83.31;100245.38;5040687;28;20212;-81
2021/01/02 07:59:33;;;;;;;27.43;20.30;;;;;;;2.43;83.22;100238.47;5033368;28;20277;-83
2021/01/02 08:02:01;;;;;;;35.40;20.97;;;;;;;2.50;83.55;100247.16;5032703;28;20228;-82
2021/01/02 08:04:29;;;;;;;29.80;20.30;;;;;;;2.53;83.03;100249.75;5036419;28;20209;-83
2021/01/02 08:06:56;;;;;;;27.17;18.97;;;;;;;2.57;83.52;100254.06;5037221;28;20229;-82
2021/01/02 08:09:22;;;;;;;28.70;20.70;;;;;;;2.56;83.26;100255.78;5037284;28;20226;-82
2021/01/02 08:11:53;;;;;;;31.90;20.47;;;;;;;2.57;82.99;100256.66;5037500;28;20546;-85
2021/01/02 08:14:20;;;;;;;38.27;21.47;;;;;;;2.63;82.46;100264.44;5042768;28;20566;-84
2021/01/02 08:17:01;;;;;;;28.17;20.30;;;;;;;2.71;82.31;100270.53;5038552;28;20563;-84
2021/01/02 08:19:31;;;;;;;31.30;26.40;;;;;;;2.87;82.11;100263.81;5042298;28;20443;-84
2021/01/02 08:21:58;;;;;;;29.20;20.63;;;;;;;2.91;81.63;100262.13;5047863;28;20221;-81
2021/01/02 08:24:24;;;;;;;38.60;25.60;;;;;;;2.95;81.49;100264.78;5041887;28;20206;-81
2021/01/02 08:26:50;;;;;;;27.93;19.87;;;;;;;2.87;81.32;100268.97;5035161;28;20271;-81
2021/01/02 08:29:17;;;;;;;26.27;19.50;;;;;;;2.87;81.54;100268.13;5035448;28;20245;-81
2021/01/02 08:31:48;;;;;;;28.67;20.60;;;;;;;2.95;82.01;100269.94;5041466;28;20198;-80
2021/01/02 08:34:24;;;;;;;32.60;20.57;;;;;;;2.98;81.78;100262.22;5046047;28;20202;-82
2021/01/02 08:36:50;;;;;;;27.97;19.73;;;;;;;3.00;82.03;100276.84;5042795;28;20289;-79
2021/01/02 08:39:19;;;;;;;46.23;30.47;;;;;;;2.91;81.48;100273.31;5042455;28;20252;-80
2021/01/02 08:41:52;;;;;;;27.33;20.20;;;;;;;2.76;81.49;100279.19;5042703;28;20228;-82
2021/01/02 08:44:21;;;;;;;36.13;21.23;;;;;;;2.83;81.86;100274.09;5034180;28;20190;-82
2021/01/02 08:46:47;;;;;;;39.67;25.40;;;;;;;2.94;81.93;100282.81;5044844;28;20206;-81
2021/01/02 08:49:26;;;;;;;33.20;20.07;;;;;;;3.02;81.34;100286.31;5041914;28;20581;-82
2021/01/02 08:51:52;;;;;;;26.00;18.47;;;;;;;2.96;80.82;100278.53;5045634;28;20218;-82
2021/01/02 08:54:17;;;;;;;27.43;19.90;;;;;;;3.03;80.66;100282.88;5036823;28;20285;-81
2021/01/02 08:56:43;;;;;;;25.63;18.10;;;;;;;3.12;80.31;100292.44;5044201;28;20202;-81
2021/01/02 08:59:11;;;;;;;25.27;19.67;;;;;;;3.11;80.00;100295.84;5048268;28;20260;-81
2021/01/02 09:01:37;;;;;;;25.33;19.63;;;;;;;3.18;79.33;100305.38;5040093;28;20226;-84
2021/01/02 09:04:10;;;;;;;24.10;18.77;;;;;;;3.30;79.38;100299.47;5042409;28;20642;-82
2021/01/02 09:06:37;;;;;;;23.83;18.83;;;;;;;3.24;78.77;100308.00;5041663;28;20202;-83
2021/01/02 09:09:06;;;;;;;26.60;20.23;;;;;;;3.20;79.25;100315.72;5039335;28;20236;-80
2021/01/02 09:11:45;;;;;;;43.27;25.77;;;;;;;2.99;80.67;100317.22;5034883;28;20206;-81
2021/01/02 09:14:11;;;;;;;45.17;28.00;;;;;;;2.86;81.87;100311.09;5034536;28;21839;-80
2021/01/02 09:16:37;;;;;;;51.90;31.27;;;;;;;2.92;81.09;100312.88;5041591;28;20198;-80
2021/01/02 09:19:03;;;;;;;30.90;22.10;;;;;;;2.96;81.13;100318.06;5040504;28;20693;-82
2021/01/02 09:21:29;;;;;;;34.40;22.80;;;;;;;3.18;81.29;100318.28;5041952;28;20210;-79
2021/01/02 09:23:56;;;;;;;40.77;25.03;;;;;;;3.33;80.37;100315.84;5039398;28;20234;-81
2021/01/02 09:26:40;;;;;;;38.87;24.40;;;;;;;3.48;79.51;100316.81;5039699;28;20201;-84
2021/01/02 09:29:13;;;;;;;31.37;22.70;;;;;;;3.56;79.40;100320.31;5042855;28;20225;-84
2021/01/02 09:31:39;;;;;;;27.57;20.17;;;;;;;3.64;79.10;100322.94;5033057;28;20316;-82
2021/01/02 09:34:05;;;;;;;28.45;20.98;;;;;;;3.74;78.09;100317.00;5034756;28;20457;-81
2021/01/02 09:36:31;;;;;;;30.97;21.93;;;;;;;3.59;77.90;100322.91;5042667;28;20198;-84
2021/01/02 09:38:57;;;;;;;29.10;20.83;;;;;;;3.56;78.01;100322.88;5041535;28;20240;-84
2021/01/02 09:41:26;;;;;;;24.97;19.70;;;;;;;3.60;77.95;100324.63;5042138;28;20206;-82
2021/01/02 09:43:54;;;;;;;24.43;19.07;;;;;;;3.73;78.34;100321.28;5039770;28;20206;-80
2021/01/02 09:46:20;;;;;;;24.87;18.57;;;;;;;3.85;77.59;100324.81;5033380;28;20212;-83
2021/01/02 09:48:48;;;;;;;27.23;20.00;;;;;;;3.79;77.37;100325.66;5038826;28;20230;-81
2021/01/02 09:51:14;;;;;;;26.50;19.23;;;;;;;3.86;77.23;100326.53;5040995;28;20256;-82
2021/01/02 09:53:40;;;;;;;28.27;19.83;;;;;;;3.95;77.25;100318.84;5038961;28;20899;-82
2021/01/02 09:56:07;;;;;;;63.83;34.70;;;;;;;3.94;76.84;100312.84;5039897;28;20202;-84
2021/01/02 09:58:34;;;;;;;39.47;25.33;;;;;;;3.95;76.81;100319.72;5039958;28;20352;-83
2021/01/02 10:01:00;;;;;;;38.40;24.27;;;;;;;4.07;76.68;100326.66;5038936;28;20194;-84
2021/01/02 10:03:26;;;;;;;25.87;20.80;;;;;;;3.84;77.08;100318.78;5041923;28;20879;-84
2021/01/02 10:05:52;;;;;;;27.37;21.10;;;;;;;3.84;76.88;100321.34;5041479;28;20205;-84
2021/01/02 10:08:18;;;;;;;23.40;19.47;;;;;;;3.63;76.92;100321.19;5038441;28;20226;-82
2021/01/02 10:10:44;;;;;;;24.73;20.13;;;;;;;3.38;78.08;100328.75;5039894;28;20210;-81
2021/01/02 10:13:10;;;;;;;34.20;24.93;;;;;;;3.43;78.52;100326.22;5045106;28;20198;-83
2021/01/02 10:15:36;;;;;;;38.60;24.97;;;;;;;3.38;78.70;100323.59;5047078;28;20197;-82
2021/01/02 10:18:03;;;;;;;34.90;22.23;;;;;;;3.36;79.08;100326.16;5045271;28;20569;-83
2021/01/02 10:20:29;;;;;;;28.43;20.57;;;;;;;3.41;79.59;100328.81;5044149;28;20202;-83
2021/01/02 10:22:54;;;;;;;30.17;20.77;;;;;;;3.32;79.86;100326.13;5049134;28;20287;-81
2021/01/02 10:25:20;;;;;;;31.17;20.50;;;;;;;3.47;79.81;100334.00;5042612;28;20202;-83
2021/01/02 10:27:46;;;;;;;22.53;19.50;;;;;;;3.64;79.65;100322.94;5045210;28;20206;-83
2021/01/02 10:30:14;;;;;;;25.90;20.07;;;;;;;3.88;79.73;100330.00;5039600;28;20628;-81
2021/01/02 10:32:42;;;;;;;27.13;20.27;;;;;;;4.04;78.33;100328.38;5043711;28;20256;-81
2021/01/02 10:35:11;;;;;;;28.70;20.13;;;;;;;4.22;78.02;100322.44;5038041;28;20209;-83
2021/01/02 10:37:37;;;;;;;34.00;23.40;;;;;;;4.31;77.12;100317.31;5046712;28;20201;-83
2021/01/02 10:40:05;;;;;;;32.73;21.43;;;;;;;4.17;76.33;100318.13;5039265;28;20241;-83
2021/01/02 10:42:32;;;;;;;30.73;20.50;;;;;;;4.31;77.10;100320.75;5044995;28;20213;-82
2021/01/02 10:44:58;;;;;;;24.63;19.83;;;;;;;4.50;77.10;100319.13;5048375;28;20199;-84
2021/01/02 10:47:26;;;;;;;28.25;22.33;;;;;;;4.64;76.60;100314.00;5043063;28;20456;-84
2021/01/02 10:49:54;;;;;;;21.87;19.00;;;;;;;4.72;75.86;100316.63;5042208;28;20225;-83
2021/01/02 10:52:22;;;;;;;19.33;17.13;;;;;;;4.68;74.93;100314.88;5042584;28;20194;-82
2021/01/02 10:54:49;;;;;;;22.57;17.83;;;;;;;4.45;74.54;100307.03;5041626;28;20221;-82
2021/01/02 10:57:16;;;;;;;21.03;17.50;;;;;;;4.42;75.45;100307.03;5040335;28;20213;-82
2021/01/02 10:59:44;;;;;;;19.83;17.20;;;;;;;4.47;75.00;100307.91;5040500;28;20222;-83
2021/01/02 11:02:10;;;;;;;27.20;17.27;;;;;;;4.35;75.47;100306.16;5043581;28;20244;-82
2021/01/02 11:04:36;;;;;;;23.33;16.80;;;;;;;4.23;75.48;100306.09;5033366;28;20252;-82
2021/01/02 11:07:04;;;;;;;21.67;17.90;;;;;;;4.15;76.24;100306.91;5040483;28;20616;-82
2021/01/02 11:09:29;;;;;;;21.43;17.90;;;;;;;4.33;76.18;100302.69;5040559;28;20343;-81
2021/01/02 11:11:55;;;;;;;19.77;17.67;;;;;;;4.42;75.66;100300.16;5041004;28;20210;-83
2021/01/02 11:14:22;;;;;;;19.40;16.60;;;;;;;4.68;75.45;100302.81;5039262;28;20210;-83
2021/01/02 11:16:49;;;;;;;22.57;17.70;;;;;;;4.60;76.34;100301.06;5039914;28;20199;-82
2021/01/02 11:19:17;;;;;;;20.83;16.80;;;;;;;4.86;76.55;100295.97;5038019;28;20729;-82
2021/01/02 11:21:46;;;;;;;19.87;16.57;;;;;;;5.13;76.61;100298.59;5032130;28;20226;-84
2021/01/02 11:24:14;;;;;;;21.00;17.63;;;;;;;5.25;75.55;100289.09;5032853;28;20257;-84
2021/01/02 11:26:44;;;;;;;21.53;17.00;;;;;;;5.33;75.19;100297.72;5036953;28;20285;-85
2021/01/02 11:29:10;;;;;;;19.37;15.80;;;;;;;5.38;74.14;100293.41;5039436;28;20218;-84
2021/01/02 11:31:36;;;;;;;19.07;16.53;;;;;;;4.76;73.50;100295.09;5039549;28;20677;-84